createdAt,value
2022-09-28T00:00:00.510Z,738.15
2022-09-28T00:02:28.712Z,749.63
2022-09-28T00:04:55.967Z,805.97
2022-09-28T00:07:23.367Z,795.90
2022-09-28T00:09:50.515Z,786.50
2022-09-28T00:12:18.455Z,791.05
2022-09-28T00:14:45.818Z,791.38
2022-09-28T00:17:13.320Z,802.75
2022-09-28T00:19:40.463Z,785.75
2022-09-28T00:22:07.714Z,694.03
2022-09-28T00:24:34.892Z,770.85
2022-09-28T00:27:02.885Z,782.28
2022-09-28T00:29:34.185Z,770.95
2022-09-28T00:32:03.416Z,838.30
2022-09-28T00:34:32.015Z,835.92
2022-09-28T00:36:59.699Z,862.00
2022-09-28T00:39:27.177Z,857.65
2022-09-28T00:41:54.929Z,869.05
2022-09-28T00:44:24.831Z,861.97
2022-09-28T00:47:04.648Z,701.78
2022-09-28T00:49:37.069Z,789.45
2022-09-28T00:52:05.439Z,756.17
2022-09-28T00:54:32.751Z,756.05
2022-09-28T00:57:01.178Z,735.55
2022-09-28T00:59:29.257Z,603.30
2022-09-28T01:01:56.705Z,765.83
2022-09-28T01:04:29.192Z,786.60
2022-09-28T01:06:57.971Z,811.45
2022-09-28T01:09:26.430Z,821.22
2022-09-28T01:11:53.645Z,829.17
2022-09-28T01:14:20.795Z,838.53
2022-09-28T01:16:47.938Z,836.63
2022-09-28T01:19:31.321Z,819.47
2022-09-28T01:22:07.430Z,846.58
2022-09-28T01:24:41.059Z,738.03
2022-09-28T01:27:13.548Z,737.97
2022-09-28T01:29:56.063Z,801.35
2022-09-28T01:32:31.186Z,818.30
2022-09-28T01:35:01.503Z,780.95
2022-09-28T01:37:32.490Z,817.80
2022-09-28T01:40:03.966Z,836.75
2022-09-28T01:45:02.180Z,846.05
2022-09-28T01:47:32.577Z,707.72
2022-09-28T01:50:03.903Z,758.97
2022-09-28T01:52:37.091Z,727.42
2022-09-28T01:55:10.775Z,596.35
2022-09-28T01:57:43.726Z,710.65
2022-09-28T02:00:13.099Z,762.42
2022-09-28T02:02:42.660Z,792.08
2022-09-28T02:05:12.771Z,822.17
2022-09-28T02:07:42.741Z,819.22
2022-09-28T02:10:19.438Z,779.97
2022-09-28T02:12:52.192Z,831.72
2022-09-28T02:15:21.437Z,844.92
2022-09-28T02:17:48.689Z,701.65
2022-09-28T02:20:16.201Z,630.70
2022-09-28T02:22:51.436Z,769.15
2022-09-28T02:25:24.237Z,749.95
2022-09-28T02:28:01.902Z,528.03
2022-09-28T02:30:33.082Z,606.58
2022-09-28T02:33:03.486Z,605.00
2022-09-28T02:35:30.832Z,661.25
2022-09-28T02:37:58.343Z,668.00
2022-09-28T02:40:27.901Z,681.85
2022-09-28T02:42:57.810Z,585.55
2022-09-28T02:45:27.783Z,665.35
2022-09-28T02:48:09.154Z,691.03
2022-09-28T02:50:42.643Z,695.28
2022-09-28T02:53:18.913Z,685.95
2022-09-28T02:55:55.236Z,722.08
2022-09-28T02:58:31.164Z,756.42
2022-09-28T03:01:04.305Z,794.30
2022-09-28T03:03:37.474Z,678.20
2022-09-28T03:06:08.428Z,684.22
2022-09-28T03:08:55.904Z,667.78
2022-09-28T03:11:29.218Z,720.03
2022-09-28T03:13:56.981Z,716.28
2022-09-28T03:16:24.201Z,764.78
2022-09-28T03:18:51.410Z,785.67
2022-09-28T03:21:18.531Z,800.13
2022-09-28T03:23:47.316Z,795.10
2022-09-28T03:26:16.559Z,770.63
2022-09-28T03:28:43.743Z,787.13
2022-09-28T03:31:10.948Z,680.58
2022-09-28T03:33:38.267Z,612.15
2022-09-28T03:36:05.982Z,579.70
2022-09-28T03:38:33.127Z,707.80
2022-09-28T03:41:00.880Z,748.53
2022-09-28T03:43:28.426Z,750.25
2022-09-28T03:45:56.371Z,566.50
2022-09-28T03:48:32.053Z,745.30
2022-09-28T03:51:01.106Z,765.00
2022-09-28T03:53:29.686Z,754.97
2022-09-28T03:55:57.483Z,759.55
2022-09-28T03:58:24.682Z,669.97
2022-09-28T04:00:52.242Z,675.80
2022-09-28T04:03:19.410Z,697.63
2022-09-28T04:05:53.461Z,744.15
2022-09-28T04:08:20.755Z,708.25
2022-09-28T04:10:47.900Z,768.35
2022-09-28T04:13:15.379Z,752.25
2022-09-28T04:15:43.178Z,751.67
2022-09-28T04:18:13.570Z,767.28
2022-09-28T04:20:41.536Z,757.83
2022-09-28T04:23:08.669Z,743.22
2022-09-28T04:25:35.835Z,760.10
2022-09-28T04:28:21.543Z,738.75
2022-09-28T04:30:48.720Z,771.58
2022-09-28T04:33:15.947Z,704.25
2022-09-28T04:35:43.147Z,654.42
2022-09-28T04:38:10.241Z,663.28
2022-09-28T04:40:37.348Z,696.85
2022-09-28T04:43:04.614Z,652.20
2022-09-28T04:45:31.801Z,709.20
2022-09-28T04:47:59.013Z,767.05
2022-09-28T04:50:26.192Z,802.38
2022-09-28T04:52:53.415Z,817.17
2022-09-28T04:55:20.869Z,789.63
2022-09-28T04:57:48.156Z,683.75
2022-09-28T05:00:15.481Z,712.63
2022-09-28T05:02:42.691Z,634.85
2022-09-28T05:05:09.975Z,693.05
2022-09-28T05:07:37.168Z,801.50
2022-09-28T05:10:05.072Z,792.30
2022-09-28T05:12:32.189Z,601.83
2022-09-28T05:15:00.547Z,696.97
2022-09-28T05:17:27.702Z,717.95
2022-09-28T05:19:54.786Z,714.28
2022-09-28T05:22:21.911Z,736.97
2022-09-28T05:24:49.008Z,746.72
2022-09-28T05:27:16.247Z,695.20
2022-09-28T05:29:43.407Z,733.35
2022-09-28T05:32:10.621Z,743.55
2022-09-28T05:34:37.826Z,742.13
2022-09-28T05:37:04.894Z,746.15
2022-09-28T05:39:31.985Z,753.95
2022-09-28T05:41:59.100Z,774.97
2022-09-28T05:44:26.245Z,679.25
2022-09-28T05:46:54.642Z,691.42
2022-09-28T05:49:21.739Z,751.33
2022-09-28T05:51:48.854Z,767.70
2022-09-28T05:54:16.035Z,721.60
2022-09-28T05:56:43.198Z,744.88
2022-09-28T05:59:10.329Z,673.65
2022-09-28T06:01:37.522Z,666.10
2022-09-28T06:04:04.694Z,687.70
2022-09-28T06:06:31.778Z,764.15
2022-09-28T06:08:58.855Z,810.42
2022-09-28T06:11:27.485Z,786.72
2022-09-28T06:13:55.614Z,780.28
2022-09-28T06:16:22.945Z,827.55
2022-09-28T06:18:49.997Z,831.00
2022-09-28T06:21:17.075Z,801.35
2022-09-28T06:23:48.956Z,706.72
2022-09-28T06:26:16.944Z,611.83
2022-09-28T06:28:44.168Z,702.42
2022-09-28T06:31:11.390Z,702.03
2022-09-28T06:33:38.609Z,656.88
2022-09-28T06:36:05.755Z,677.17
2022-09-28T06:38:32.803Z,735.45
2022-09-28T06:40:59.977Z,827.92
2022-09-28T06:43:32.175Z,845.00
2022-09-28T06:46:01.939Z,756.80
2022-09-28T06:48:29.047Z,827.78
2022-09-28T06:50:56.264Z,660.97
2022-09-28T06:53:23.638Z,737.95
2022-09-28T06:55:50.815Z,647.58
2022-09-28T06:58:19.608Z,741.30
2022-09-28T07:00:47.767Z,773.28
2022-09-28T07:03:16.153Z,605.20
2022-09-28T07:05:47.688Z,645.78
2022-09-28T07:10:42.755Z,675.22
2022-09-28T07:13:26.865Z,701.97
2022-09-28T07:15:57.333Z,685.50
2022-09-28T07:18:25.121Z,672.20
2022-09-28T07:20:54.645Z,650.47
2022-09-28T07:23:21.880Z,609.58
2022-09-28T07:25:50.132Z,623.92
2022-09-28T07:28:17.638Z,670.58
2022-09-28T07:30:45.488Z,691.50
2022-09-28T07:33:17.089Z,727.55
2022-09-28T07:38:11.494Z,760.38
2022-09-28T07:40:57.213Z,719.95
2022-09-28T07:43:24.416Z,588.65
2022-09-28T07:45:52.720Z,440.27
2022-09-28T07:48:20.351Z,502.08
2022-09-28T07:50:51.756Z,451.85
2022-09-28T07:55:53.260Z,352.02
2022-09-28T07:58:20.682Z,401.30
2022-09-28T08:00:48.286Z,379.10
2022-09-28T08:03:16.317Z,492.17
2022-09-28T08:05:43.527Z,573.13
2022-09-28T08:08:11.133Z,536.65
2022-09-28T08:10:38.285Z,375.70
2022-09-28T08:13:07.537Z,348.48
2022-09-28T08:15:36.914Z,316.67
2022-09-28T08:18:04.674Z,488.48
2022-09-28T08:20:51.859Z,450.15
2022-09-28T08:23:19.612Z,487.75
2022-09-28T08:25:50.500Z,416.77
2022-09-28T08:28:18.348Z,308.17
2022-09-28T08:30:46.230Z,334.75
2022-09-28T08:33:14.166Z,346.73
2022-09-28T08:35:41.789Z,335.83
2022-09-28T08:38:09.515Z,354.77
2022-09-28T08:40:48.947Z,364.73
2022-09-28T08:43:36.023Z,361.40
2022-09-28T08:46:03.212Z,463.00
2022-09-28T08:48:56.298Z,420.92
2022-09-28T08:51:51.482Z,402.23
2022-09-28T08:54:27.909Z,393.83
2022-09-28T08:56:56.021Z,341.00
2022-09-28T08:59:29.261Z,389.38
2022-09-28T09:01:59.098Z,505.67
2022-09-28T09:04:26.665Z,573.53
2022-09-28T09:06:53.716Z,579.72
2022-09-28T09:09:20.928Z,604.13
2022-09-28T09:11:58.190Z,585.33
2022-09-28T09:14:44.361Z,385.10
2022-09-28T09:17:30.303Z,433.25
2022-09-28T09:20:16.414Z,435.92
2022-09-28T09:22:52.853Z,454.55
2022-09-28T09:25:21.301Z,301.90
2022-09-28T09:27:57.699Z,501.15
2022-09-28T09:30:31.655Z,547.75
2022-09-28T09:33:07.992Z,440.50
2022-09-28T09:35:37.859Z,562.83
2022-09-28T09:38:06.497Z,602.00
2022-09-28T09:40:33.604Z,464.45
2022-09-28T09:43:07.237Z,587.17
2022-09-28T09:45:53.270Z,567.45
2022-09-28T09:48:25.143Z,498.33
2022-09-28T09:50:54.757Z,576.85
2022-09-28T09:53:21.897Z,601.22
2022-09-28T09:55:50.440Z,644.28
2022-09-28T09:58:39.389Z,591.85
2022-09-28T10:01:08.661Z,639.28
2022-09-28T10:03:37.328Z,672.95
2022-09-28T10:06:07.061Z,575.00
2022-09-28T10:08:48.949Z,593.33
2022-09-28T10:11:21.916Z,646.28
2022-09-28T10:13:49.249Z,696.05
2022-09-28T10:16:19.858Z,731.33
2022-09-28T10:18:46.986Z,736.95
2022-09-28T10:21:15.070Z,638.30
2022-09-28T10:23:42.500Z,669.40
2022-09-28T10:26:29.833Z,473.98
2022-09-28T10:29:04.761Z,668.95
2022-09-28T10:31:45.283Z,685.40
2022-09-28T10:34:14.735Z,709.43
2022-09-28T10:36:48.048Z,751.65
2022-09-28T10:39:36.392Z,753.00
2022-09-28T10:42:10.748Z,686.22
2022-09-28T10:45:04.789Z,743.47
2022-09-28T10:47:32.736Z,742.42
2022-09-28T10:50:00.826Z,737.25
2022-09-28T10:52:33.976Z,467.27
2022-09-28T10:55:01.676Z,516.22
2022-09-28T10:57:39.805Z,465.27
2022-09-28T11:00:08.168Z,499.50
2022-09-28T11:02:36.854Z,724.33
2022-09-28T11:05:05.621Z,758.35
2022-09-28T11:07:33.637Z,740.17
2022-09-28T11:10:01.398Z,627.25
2022-09-28T11:12:31.107Z,700.63
2022-09-28T11:15:02.583Z,700.03
2022-09-28T11:17:31.465Z,717.58
2022-09-28T11:20:02.494Z,727.35
2022-09-28T11:22:36.583Z,732.15
2022-09-28T11:25:18.781Z,748.28
2022-09-28T11:27:51.621Z,762.63
2022-09-28T11:30:23.870Z,753.08
2022-09-28T11:32:51.799Z,764.05
2022-09-28T11:35:20.983Z,510.63
2022-09-28T11:38:03.378Z,524.25
2022-09-28T11:40:37.840Z,571.35
2022-09-28T11:43:14.454Z,667.97
2022-09-28T11:45:52.962Z,422.00
2022-09-28T11:48:24.512Z,560.45
2022-09-28T11:51:01.055Z,669.22
2022-09-28T11:53:34.364Z,683.83
2022-09-28T11:56:05.307Z,471.08
2022-09-28T11:58:38.382Z,502.00
2022-09-28T12:01:05.483Z,498.43
2022-09-28T12:03:38.359Z,526.78
2022-09-28T12:06:07.757Z,563.58
2022-09-28T12:08:37.331Z,541.33
2022-09-28T12:11:20.132Z,481.00
2022-09-28T12:13:48.810Z,518.55
2022-09-28T12:19:13.407Z,550.75
2022-09-28T12:21:46.325Z,554.17
2022-09-28T12:24:19.709Z,516.90
2022-09-28T12:26:49.567Z,526.90
2022-09-28T12:29:20.673Z,535.45
2022-09-28T12:31:59.708Z,564.65
2022-09-28T12:34:26.983Z,696.63
2022-09-28T12:37:00.190Z,670.22
2022-09-28T12:39:46.801Z,699.45
2022-09-28T12:42:15.002Z,710.30
2022-09-28T12:44:42.041Z,639.03
2022-09-28T12:47:27.832Z,666.72
2022-09-28T12:53:11.873Z,490.20
2022-09-28T12:55:57.748Z,677.92
2022-09-28T12:58:28.039Z,640.85
2022-09-28T13:01:15.303Z,663.88
2022-09-28T13:04:01.266Z,697.90
2022-09-28T13:06:41.161Z,706.78
2022-09-28T13:09:15.090Z,714.28
2022-09-28T13:11:56.196Z,725.35
2022-09-28T13:14:32.689Z,711.80
2022-09-28T13:17:09.238Z,734.47
2022-09-28T13:19:51.508Z,735.15
2022-09-28T13:22:21.433Z,742.63
2022-09-28T13:24:49.432Z,754.35
2022-09-28T13:27:24.235Z,698.25
2022-09-28T13:29:51.630Z,683.97
2022-09-28T13:32:19.142Z,695.47
2022-09-28T13:34:48.334Z,711.05
2022-09-28T13:37:19.796Z,742.05
2022-09-28T13:39:46.842Z,715.92
2022-09-28T13:42:34.181Z,712.40
2022-09-28T13:45:01.307Z,707.90
2022-09-28T13:47:28.363Z,643.47
2022-09-28T13:50:01.620Z,701.95
2022-09-28T13:52:32.390Z,760.35
2022-09-28T13:55:17.854Z,771.42
2022-09-28T13:57:54.136Z,790.60
2022-09-28T14:00:33.914Z,682.72
2022-09-28T14:03:06.834Z,676.22
2022-09-28T14:05:41.700Z,693.30
2022-09-28T14:08:12.869Z,740.22
2022-09-28T14:10:49.355Z,758.47
2022-09-28T14:13:36.403Z,787.67
2022-09-28T14:16:18.964Z,792.55
2022-09-28T14:18:50.028Z,519.13
2022-09-28T14:21:17.079Z,504.10
2022-09-28T14:24:00.027Z,529.28
2022-09-28T14:26:33.237Z,535.47
2022-09-28T14:29:10.120Z,517.42
2022-09-28T14:31:42.289Z,552.33
2022-09-28T14:34:24.453Z,719.22
2022-09-28T14:37:10.364Z,796.42
2022-09-28T14:39:57.434Z,802.97
2022-09-28T14:42:25.677Z,641.60
2022-09-28T14:45:07.260Z,656.97
2022-09-28T14:47:35.697Z,677.08
2022-09-28T14:50:18.277Z,694.08
2022-09-28T14:52:51.418Z,706.22
2022-09-28T14:55:20.183Z,633.90
2022-09-28T14:57:52.730Z,761.58
2022-09-28T15:00:21.741Z,740.58
2022-09-28T15:02:52.356Z,759.25
2022-09-28T15:05:29.153Z,733.15
2022-09-28T15:07:56.411Z,757.25
2022-09-28T15:10:33.706Z,790.55
2022-09-28T15:13:05.395Z,820.28
2022-09-28T15:15:34.755Z,847.10
2022-09-28T15:18:22.179Z,823.78
2022-09-28T15:20:50.209Z,811.05
2022-09-28T15:23:28.985Z,829.33
2022-09-28T15:25:56.207Z,842.85
2022-09-28T15:28:24.828Z,788.05
2022-09-28T15:30:52.244Z,744.20
2022-09-28T15:33:45.302Z,610.97
2022-09-28T15:36:24.577Z,662.83
2022-09-28T15:38:54.478Z,675.92
2022-09-28T15:41:24.824Z,671.80
2022-09-28T15:44:07.088Z,687.40
2022-09-28T15:46:35.061Z,741.63
2022-09-28T15:49:02.583Z,835.20
2022-09-28T15:51:30.122Z,778.97
2022-09-28T15:54:09.467Z,771.78
2022-09-28T15:56:55.128Z,845.97
2022-09-28T15:59:28.371Z,848.75
2022-09-28T16:02:12.186Z,855.75
2022-09-28T16:04:54.079Z,843.72
2022-09-28T16:07:24.330Z,858.08
2022-09-28T16:10:01.906Z,847.05
2022-09-28T16:12:32.114Z,869.63
2022-09-28T16:15:00.141Z,872.08
2022-09-28T16:17:34.854Z,870.63
2022-09-28T16:20:03.536Z,865.25
2022-09-28T16:22:32.728Z,753.67
2022-09-28T16:25:01.517Z,734.25
2022-09-28T16:27:40.551Z,806.95
2022-09-28T16:30:10.679Z,798.85
2022-09-28T16:32:41.771Z,839.25
2022-09-28T16:35:18.047Z,816.80
2022-09-28T16:37:45.242Z,641.97
2022-09-28T16:40:13.264Z,655.17
2022-09-28T16:42:49.110Z,693.13
2022-09-28T16:45:20.619Z,688.28
2022-09-28T16:47:52.315Z,778.97
2022-09-28T16:50:20.801Z,819.47
2022-09-28T16:53:09.139Z,836.85
2022-09-28T16:55:40.892Z,833.17
2022-09-28T16:58:08.556Z,794.67
2022-09-28T17:00:36.296Z,812.55
2022-09-28T17:03:05.351Z,804.55
2022-09-28T17:05:32.546Z,796.95
2022-09-28T17:08:03.495Z,817.75
2022-09-28T17:11:02.117Z,836.03
2022-09-28T17:13:35.921Z,842.30
2022-09-28T17:16:06.175Z,886.85
2022-09-28T17:18:33.438Z,892.42
2022-09-28T17:21:03.407Z,721.85
2022-09-28T17:23:30.664Z,746.58
2022-09-28T17:25:59.034Z,761.97
2022-09-28T17:28:27.836Z,745.67
2022-09-28T17:30:55.078Z,799.20
2022-09-28T17:33:22.227Z,847.40
2022-09-28T17:35:50.225Z,870.15
2022-09-28T17:38:17.444Z,893.85
2022-09-28T17:40:45.675Z,895.97
2022-09-28T17:43:12.870Z,799.83
2022-09-28T17:45:41.109Z,824.67
2022-09-28T17:48:11.687Z,835.35
2022-09-28T17:50:41.215Z,808.53
2022-09-28T17:55:39.401Z,871.42
2022-09-28T17:58:17.087Z,813.33
2022-09-28T18:00:44.915Z,818.55
2022-09-28T18:03:14.400Z,820.03
2022-09-28T18:05:42.264Z,865.05
2022-09-28T18:08:10.497Z,866.65
2022-09-28T18:10:37.644Z,843.50
2022-09-28T18:13:04.867Z,850.67
2022-09-28T18:15:32.119Z,875.83
2022-09-28T18:17:59.272Z,872.53
2022-09-28T18:20:26.481Z,868.95
2022-09-28T18:22:53.600Z,872.78
2022-09-28T18:25:20.925Z,879.92
2022-09-28T18:27:48.031Z,856.80
2022-09-28T18:30:17.998Z,802.58
2022-09-28T18:32:45.345Z,804.70
2022-09-28T18:35:12.583Z,853.53
2022-09-28T18:37:40.122Z,770.47
2022-09-28T18:40:08.548Z,738.80
2022-09-28T18:42:36.262Z,719.22
2022-09-28T18:45:04.987Z,814.17
2022-09-28T18:47:33.148Z,828.15
2022-09-28T18:50:00.379Z,815.70
2022-09-28T18:52:27.758Z,823.03
2022-09-28T18:54:54.858Z,819.88
2022-09-28T18:57:22.893Z,839.38
2022-09-28T18:59:50.100Z,855.67
2022-09-28T19:02:17.353Z,825.60
2022-09-28T19:04:44.820Z,840.83
2022-09-28T19:07:12.684Z,856.17
2022-09-28T19:09:43.959Z,834.22
2022-09-28T19:12:14.153Z,744.83
2022-09-28T19:14:41.244Z,849.90
2022-09-28T19:17:08.350Z,826.33
2022-09-28T19:19:35.802Z,841.00
2022-09-28T19:22:02.965Z,847.03
2022-09-28T19:24:30.142Z,864.63
2022-09-28T19:26:57.503Z,879.30
2022-09-28T19:29:24.602Z,864.55
2022-09-28T19:31:51.941Z,865.40
2022-09-28T19:34:19.273Z,855.40
2022-09-28T19:36:46.388Z,869.10
2022-09-28T19:39:14.590Z,851.40
2022-09-28T19:41:47.778Z,874.88
2022-09-28T19:44:24.896Z,854.20
2022-09-28T19:46:54.665Z,821.50
2022-09-28T19:49:22.284Z,838.03
2022-09-28T19:52:13.789Z,852.17
2022-09-28T19:54:43.726Z,842.47
2022-09-28T19:57:11.395Z,852.75
2022-09-28T19:59:38.552Z,855.55
2022-09-28T20:02:06.415Z,875.17
2022-09-28T20:04:33.612Z,818.58
2022-09-28T20:07:01.646Z,819.65
2022-09-28T20:09:28.708Z,823.78
2022-09-28T20:11:55.843Z,840.53
2022-09-28T20:14:24.670Z,854.50
2022-09-28T20:16:55.395Z,767.05
2022-09-28T20:19:23.316Z,821.78
2022-09-28T20:21:50.966Z,839.67
2022-09-28T20:24:18.450Z,833.90
2022-09-28T20:26:46.099Z,818.55
2022-09-28T20:29:13.303Z,829.83
2022-09-28T20:31:40.480Z,830.08
2022-09-28T20:34:07.741Z,776.13
2022-09-28T20:36:35.116Z,843.60
2022-09-28T20:39:02.896Z,850.75
2022-09-28T20:41:36.692Z,838.20
2022-09-28T20:44:06.118Z,815.33
2022-09-28T20:46:34.111Z,855.28
2022-09-28T20:49:01.371Z,871.35
2022-09-28T20:51:28.569Z,875.63
2022-09-28T20:53:56.894Z,783.50
2022-09-28T20:56:31.550Z,827.00
2022-09-28T20:58:58.700Z,808.75
2022-09-28T21:01:26.641Z,822.50
2022-09-28T21:03:55.488Z,820.47
2022-09-28T21:06:24.100Z,833.70
2022-09-28T21:08:51.230Z,841.97
2022-09-28T21:11:19.344Z,841.00
2022-09-28T21:13:46.669Z,841.83
2022-09-28T21:16:15.949Z,851.63
2022-09-28T21:18:43.177Z,852.20
2022-09-28T21:21:12.217Z,863.72
2022-09-28T21:23:39.565Z,770.60
2022-09-28T21:26:07.965Z,819.95
2022-09-28T21:28:35.305Z,839.90
2022-09-28T21:31:03.459Z,831.05
2022-09-28T21:33:30.791Z,798.08
2022-09-28T21:36:01.231Z,811.08
2022-09-28T21:38:29.093Z,839.63
2022-09-28T21:40:57.047Z,834.80
2022-09-28T21:43:24.978Z,781.53
2022-09-28T21:45:53.078Z,777.13
2022-09-28T21:48:20.956Z,756.60
2022-09-28T21:50:55.709Z,788.50
2022-09-28T21:53:23.099Z,815.55
2022-09-28T21:55:52.885Z,813.75
2022-09-28T21:58:23.375Z,829.10
2022-09-28T22:00:55.639Z,757.58
2022-09-28T22:03:25.700Z,591.38
2022-09-28T22:05:52.786Z,750.08
2022-09-28T22:08:20.259Z,804.33
2022-09-28T22:10:47.459Z,784.95
2022-09-28T22:13:14.540Z,787.22
2022-09-28T22:15:41.778Z,823.33
2022-09-28T22:18:08.929Z,817.17
2022-09-28T22:20:36.028Z,805.40
2022-09-28T22:23:03.174Z,811.33
2022-09-28T22:25:30.283Z,825.50
2022-09-28T22:27:57.415Z,819.33
2022-09-28T22:30:24.498Z,786.92
2022-09-28T22:32:51.670Z,745.42
2022-09-28T22:35:18.789Z,589.47
2022-09-28T22:37:46.827Z,729.65
2022-09-28T22:40:13.993Z,797.85
2022-09-28T22:42:41.170Z,765.75
2022-09-28T22:45:08.429Z,773.10
2022-09-28T22:47:35.690Z,618.67
2022-09-28T22:50:03.137Z,569.58
2022-09-28T22:52:30.452Z,642.05
2022-09-28T22:54:57.614Z,558.00
2022-09-28T22:57:24.707Z,626.72
2022-09-28T22:59:51.782Z,639.47
2022-09-28T23:02:18.862Z,728.65
2022-09-28T23:04:46.668Z,773.20
2022-09-28T23:07:13.819Z,710.15
2022-09-28T23:09:40.907Z,798.08
2022-09-28T23:12:08.029Z,664.38
2022-09-28T23:14:35.195Z,698.40
2022-09-28T23:17:02.285Z,685.95
2022-09-28T23:19:29.412Z,651.20
2022-09-28T23:21:58.530Z,676.20
2022-09-28T23:24:25.671Z,650.53
2022-09-28T23:26:52.767Z,672.53
2022-09-28T23:29:19.947Z,675.08
2022-09-28T23:31:47.111Z,670.58
2022-09-28T23:34:14.636Z,648.55
2022-09-28T23:36:41.816Z,617.90
2022-09-28T23:39:10.056Z,647.20
2022-09-28T23:41:37.175Z,738.15
2022-09-28T23:44:04.574Z,784.58
2022-09-28T23:46:32.350Z,759.45
2022-09-28T23:48:59.506Z,784.42
2022-09-28T23:51:26.752Z,773.97
2022-09-28T23:53:53.861Z,622.17
2022-09-28T23:56:21.490Z,645.70
2022-09-28T23:58:48.566Z,700.38
